Meiser, Pennsylvania
Current Conditions -  °F | °C
As of 6:53 PM on Saturday 22 Nov 2014 (Local Time) from KSEG Reporting Station
Overcast Overcast  
Wind Chill: 33°   Ceiling: 6000
Heat Index: 39°   Visibility: 10mi
Dew Point: 17°   Wind: 8mph
Humidity: 41%   Direction: 200°SSW
Pressure: 30.23"   Gusts: NA
Location:  40.7851°N, 77.0335°W
Report Text: KSEG 222353Z AUTO 20007KT 170V230 10SM OVC060 04/M08 A3023 RMK AO2 SLP241 60000 T00391083 10039 20022 58008
Loading
Personal Weather Stations






























Interactive Weather Map New forecast layout! Learn more

10-Day Weather Forecast

Advertisements
Track Severe Weather on mobile